createdAt,value
2023-01-12T00:02:15.927Z,26.30
2023-01-12T00:04:43.665Z,28.10
2023-01-12T00:07:11.333Z,23.10
2023-01-12T00:09:38.922Z,26.40
2023-01-12T00:12:06.625Z,31.20
2023-01-12T00:14:34.238Z,21.50
2023-01-12T00:17:01.886Z,22.90
2023-01-12T00:19:29.549Z,22.70
2023-01-12T00:22:09.083Z,21.40
2023-01-12T00:24:36.730Z,24.80
2023-01-12T00:27:04.600Z,20.30
2023-01-12T00:29:32.220Z,22.00
2023-01-12T00:32:01.000Z,20.90
2023-01-12T00:34:29.684Z,21.20
2023-01-12T00:36:57.644Z,22.50
2023-01-12T00:39:25.269Z,17.60
2023-01-12T00:42:11.651Z,19.60
2023-01-12T00:44:58.097Z,19.20
2023-01-12T00:47:25.731Z,21.60
2023-01-12T00:49:53.401Z,18.70
2023-01-12T00:52:30.469Z,21.10
2023-01-12T00:54:58.987Z,21.70
2023-01-12T00:57:26.681Z,29.10
2023-01-12T00:59:55.759Z,22.40
2023-01-12T01:02:23.522Z,19.50
2023-01-12T01:04:51.252Z,15.70
2023-01-12T01:07:21.670Z,20.60
2023-01-12T01:09:49.575Z,17.10
2023-01-12T01:12:17.204Z,19.20
2023-01-12T01:14:44.867Z,21.20
2023-01-12T01:17:12.484Z,19.50
2023-01-12T01:19:40.107Z,17.60
2023-01-12T01:22:07.722Z,17.30
2023-01-12T01:24:35.351Z,22.70
2023-01-12T01:27:02.996Z,14.10
2023-01-12T01:29:30.642Z,16.60
2023-01-12T01:31:58.262Z,13.10
2023-01-12T01:34:25.929Z,15.10
2023-01-12T01:36:53.562Z,17.70
2023-01-12T01:39:21.173Z,17.10
2023-01-12T01:41:48.765Z,19.70
2023-01-12T01:44:16.388Z,17.20
2023-01-12T01:46:44.083Z,14.60
2023-01-12T01:49:11.711Z,17.30
2023-01-12T01:51:39.339Z,14.20
2023-01-12T01:54:06.978Z,14.70
2023-01-12T01:56:34.702Z,18.40
2023-01-12T01:59:02.349Z,18.90
2023-01-12T02:01:30.037Z,19.50
2023-01-12T02:03:57.692Z,24.10
2023-01-12T02:06:26.043Z,22.00
2023-01-12T02:08:53.687Z,26.60
2023-01-12T02:11:40.276Z,23.50
2023-01-12T02:14:26.584Z,38.70
2023-01-12T02:16:54.218Z,58.20
2023-01-12T02:19:21.813Z,51.40
2023-01-12T02:21:49.469Z,30.30
2023-01-12T02:24:17.073Z,42.10
2023-01-12T02:26:44.709Z,29.20
2023-01-12T02:29:12.345Z,33.60
2023-01-12T02:31:40.020Z,25.50
2023-01-12T02:34:09.462Z,24.60
2023-01-12T02:36:37.406Z,23.80
2023-01-12T02:39:05.029Z,17.90
2023-01-12T02:41:51.552Z,21.10
2023-01-12T02:44:19.177Z,17.40
2023-01-12T02:46:46.855Z,15.70
2023-01-12T02:49:14.514Z,14.50
2023-01-12T02:51:42.134Z,14.40
2023-01-12T02:54:11.097Z,14.70
2023-01-12T02:56:38.703Z,14.30
2023-01-12T02:59:06.383Z,15.80
2023-01-12T03:01:34.160Z,14.00
2023-01-12T03:04:01.816Z,15.30
2023-01-12T03:06:29.469Z,16.20
2023-01-12T03:08:57.071Z,13.10
2023-01-12T03:11:24.686Z,18.60
2023-01-12T03:13:52.373Z,12.50
2023-01-12T03:16:20.126Z,13.40
2023-01-12T03:18:47.953Z,14.20
2023-01-12T03:21:15.553Z,13.20
2023-01-12T03:23:43.210Z,14.10
2023-01-12T03:26:11.538Z,18.70
2023-01-12T03:28:39.202Z,26.60
2023-01-12T03:31:09.201Z,18.80
2023-01-12T03:33:36.883Z,12.70
2023-01-12T03:36:04.503Z,17.70
2023-01-12T03:38:32.085Z,12.60
2023-01-12T03:40:59.701Z,16.30
2023-01-12T03:43:27.316Z,14.40
2023-01-12T03:45:54.970Z,14.10
2023-01-12T03:48:22.563Z,12.60
2023-01-12T03:50:50.191Z,9.90
2023-01-12T03:53:17.800Z,11.90
2023-01-12T03:55:45.421Z,14.30
2023-01-12T03:58:13.058Z,12.00
2023-01-12T04:00:40.682Z,13.70
2023-01-12T04:03:08.380Z,11.60
2023-01-12T04:05:36.019Z,15.70
2023-01-12T04:08:03.641Z,17.20
2023-01-12T04:10:31.255Z,12.20
2023-01-12T04:12:58.869Z,12.70
2023-01-12T04:15:26.477Z,13.80
2023-01-12T04:17:54.142Z,15.80
2023-01-12T04:20:21.769Z,15.40
2023-01-12T04:22:49.441Z,17.50
2023-01-12T04:25:17.057Z,21.90
2023-01-12T04:27:44.667Z,15.20
2023-01-12T04:30:12.266Z,16.20
2023-01-12T04:32:39.910Z,14.80
2023-01-12T04:35:07.530Z,12.60
2023-01-12T04:37:35.209Z,14.90
2023-01-12T04:40:02.829Z,12.00
2023-01-12T04:42:49.476Z,16.60
2023-01-12T04:45:17.072Z,14.50
2023-01-12T04:47:44.685Z,13.50
2023-01-12T04:50:12.315Z,14.40
2023-01-12T04:52:40.030Z,14.20
2023-01-12T04:55:07.667Z,12.10
2023-01-12T04:57:35.293Z,14.90
2023-01-12T05:00:02.978Z,14.50
2023-01-12T05:02:30.613Z,13.00
2023-01-12T05:04:58.237Z,15.10
2023-01-12T05:07:25.860Z,10.80
2023-01-12T05:10:26.081Z,12.30
2023-01-12T05:12:53.721Z,11.00
2023-01-12T05:15:21.344Z,13.30
2023-01-12T05:17:48.943Z,12.40
2023-01-12T05:20:16.701Z,10.40
2023-01-12T05:22:44.375Z,13.80
2023-01-12T05:25:12.010Z,11.40
2023-01-12T05:27:39.632Z,10.00
2023-01-12T05:30:07.279Z,13.40
2023-01-12T05:32:34.904Z,9.80
2023-01-12T05:35:02.517Z,10.30
2023-01-12T05:37:30.192Z,10.90
2023-01-12T05:39:57.825Z,11.10
2023-01-12T05:42:44.213Z,13.50
2023-01-12T05:45:11.825Z,17.70
2023-01-12T05:47:39.498Z,15.10
2023-01-12T05:50:07.148Z,22.90
2023-01-12T05:52:34.777Z,19.70
2023-01-12T05:55:02.421Z,18.70
2023-01-12T05:57:30.343Z,20.10
2023-01-12T05:59:57.973Z,19.70
2023-01-12T06:02:25.793Z,20.20
2023-01-12T06:04:53.736Z,22.30
2023-01-12T06:07:21.435Z,16.90
2023-01-12T06:09:49.038Z,23.80
2023-01-12T06:12:35.719Z,44.50
2023-01-12T06:15:03.317Z,46.60
2023-01-12T06:17:30.969Z,17.10
2023-01-12T06:19:58.897Z,16.10
2023-01-12T06:22:27.467Z,21.10
2023-01-12T06:24:55.148Z,20.40
2023-01-12T06:27:22.814Z,20.80
2023-01-12T06:29:50.464Z,18.40
2023-01-12T06:32:18.115Z,17.80
2023-01-12T06:34:45.769Z,16.70
2023-01-12T06:37:13.453Z,15.20
2023-01-12T06:39:41.075Z,15.20
2023-01-12T06:42:27.373Z,16.20
2023-01-12T06:44:55.001Z,18.30
2023-01-12T06:47:22.613Z,12.00
2023-01-12T06:49:51.908Z,10.60
2023-01-12T06:52:19.556Z,17.30
2023-01-12T06:54:47.164Z,15.40
2023-01-12T06:57:14.799Z,13.20
2023-01-12T06:59:42.416Z,12.30
2023-01-12T07:02:10.069Z,10.90
2023-01-12T07:04:37.743Z,12.20
2023-01-12T07:07:05.453Z,14.20
2023-01-12T07:09:33.060Z,16.30
2023-01-12T07:12:00.695Z,12.10
2023-01-12T07:14:28.317Z,16.70
2023-01-12T07:16:55.958Z,16.30
2023-01-12T07:19:23.578Z,16.50
2023-01-12T07:21:51.199Z,17.00
2023-01-12T07:24:18.847Z,16.20
2023-01-12T07:26:46.450Z,20.70
2023-01-12T07:29:14.052Z,20.40
2023-01-12T07:31:41.716Z,27.80
2023-01-12T07:34:09.329Z,42.00
2023-01-12T07:36:36.981Z,37.50
2023-01-12T07:39:04.596Z,33.50
2023-01-12T07:41:51.196Z,24.40
2023-01-12T07:44:18.842Z,32.60
2023-01-12T07:46:46.531Z,19.20
2023-01-12T07:49:14.187Z,25.10
2023-01-12T07:51:41.830Z,42.80
2023-01-12T07:54:09.445Z,27.20
2023-01-12T07:56:37.144Z,78.80
2023-01-12T07:59:04.765Z,19.50
2023-01-12T08:01:33.228Z,23.40
2023-01-12T08:04:00.926Z,24.10
2023-01-12T08:06:28.568Z,20.50
2023-01-12T08:08:56.166Z,19.10
2023-01-12T08:11:23.860Z,28.30
2023-01-12T08:13:51.472Z,23.80
2023-01-12T08:16:19.716Z,33.40
2023-01-12T08:18:47.439Z,32.10
2023-01-12T08:21:15.102Z,39.90
2023-01-12T08:23:42.757Z,43.10
2023-01-12T08:26:10.519Z,38.60
2023-01-12T08:28:38.200Z,40.10
2023-01-12T08:31:05.861Z,64.30
2023-01-12T08:33:33.497Z,66.10
2023-01-12T08:36:01.200Z,80.20
2023-01-12T08:38:28.830Z,57.80
2023-01-12T08:41:15.181Z,43.80
2023-01-12T08:44:01.775Z,35.50
2023-01-12T08:46:29.464Z,30.70
2023-01-12T08:48:57.353Z,32.40
2023-01-12T08:51:24.978Z,43.90
2023-01-12T08:53:52.628Z,46.40
2023-01-12T08:56:20.271Z,37.00
2023-01-12T08:58:47.883Z,52.80
2023-01-12T09:01:16.884Z,40.00
2023-01-12T09:03:45.657Z,26.70
2023-01-12T09:06:13.280Z,24.40
2023-01-12T09:08:41.016Z,18.00
2023-01-12T09:11:08.695Z,22.20
2023-01-12T09:13:36.324Z,21.90
2023-01-12T09:16:12.161Z,22.70
2023-01-12T09:18:40.999Z,24.40
2023-01-12T09:21:08.924Z,27.00
2023-01-12T09:23:36.729Z,26.60
2023-01-12T09:26:04.368Z,19.90
2023-01-12T09:28:32.046Z,21.80
2023-01-12T09:30:59.671Z,16.50
2023-01-12T09:33:27.709Z,15.60
2023-01-12T09:35:55.396Z,12.10
2023-01-12T09:38:23.052Z,12.30
2023-01-12T09:40:50.639Z,14.00
2023-01-12T09:43:36.999Z,15.40
2023-01-12T09:46:39.642Z,10.70
2023-01-12T09:49:07.274Z,14.30
2023-01-12T09:51:34.897Z,17.10
2023-01-12T09:54:02.510Z,17.50
2023-01-12T09:56:30.212Z,12.90
2023-01-12T09:58:57.839Z,14.60
2023-01-12T10:01:29.656Z,13.70
2023-01-12T10:03:57.767Z,16.20
2023-01-12T10:06:25.465Z,14.70
2023-01-12T10:08:53.128Z,11.10
2023-01-12T10:11:20.740Z,12.10
2023-01-12T10:13:48.365Z,13.60
2023-01-12T10:16:16.029Z,17.30
2023-01-12T10:18:44.363Z,15.90
2023-01-12T10:21:13.665Z,18.80
2023-01-12T10:23:41.285Z,15.40
2023-01-12T10:26:08.929Z,14.50
2023-01-12T10:28:36.677Z,15.30
2023-01-12T10:31:04.285Z,12.80
2023-01-12T10:33:31.981Z,17.80
2023-01-12T10:35:59.614Z,17.90
2023-01-12T10:38:27.261Z,14.20
2023-01-12T10:40:54.866Z,14.10
2023-01-12T10:43:24.188Z,14.80
2023-01-12T10:45:51.832Z,10.80
2023-01-12T10:48:19.472Z,11.70
2023-01-12T10:50:47.139Z,14.00
2023-01-12T10:53:14.815Z,12.60
2023-01-12T10:55:42.415Z,9.50
2023-01-12T10:58:10.053Z,8.50
2023-01-12T11:00:37.656Z,7.50
2023-01-12T11:03:05.349Z,11.30
2023-01-12T11:05:35.185Z,7.20
2023-01-12T11:08:02.862Z,5.10
2023-01-12T11:10:30.562Z,8.80
2023-01-12T11:13:01.009Z,4.70
2023-01-12T11:15:28.671Z,4.60
2023-01-12T11:17:59.082Z,10.10
2023-01-12T11:20:26.732Z,10.30
2023-01-12T11:22:54.771Z,6.80
2023-01-12T11:25:22.853Z,6.30
2023-01-12T11:27:50.470Z,12.10
2023-01-12T11:30:18.687Z,7.60
2023-01-12T11:32:46.538Z,7.50
2023-01-12T11:35:14.174Z,6.80
2023-01-12T11:37:42.781Z,9.80
2023-01-12T11:40:10.418Z,6.50
2023-01-12T11:42:56.505Z,7.80
2023-01-12T11:45:24.133Z,8.20
2023-01-12T11:47:51.738Z,6.20
2023-01-12T11:50:19.464Z,6.30
2023-01-12T11:52:47.101Z,7.20
2023-01-12T11:55:15.054Z,6.00
2023-01-12T11:57:42.744Z,6.40
2023-01-12T12:00:10.367Z,7.00
2023-01-12T12:02:38.171Z,5.00
2023-01-12T12:05:06.414Z,5.80
2023-01-12T12:07:34.013Z,8.40
2023-01-12T12:10:01.635Z,7.00
2023-01-12T12:12:29.266Z,9.40
2023-01-12T12:14:57.295Z,9.10
2023-01-12T12:17:24.967Z,10.50
2023-01-12T12:19:52.594Z,8.80
2023-01-12T12:22:20.193Z,6.20
2023-01-12T12:24:47.942Z,9.60
2023-01-12T12:27:15.548Z,6.10
2023-01-12T12:29:43.150Z,6.20
2023-01-12T12:32:10.765Z,7.70
2023-01-12T12:34:38.844Z,5.10
2023-01-12T12:37:06.931Z,4.40
2023-01-12T12:39:34.612Z,4.70
2023-01-12T12:42:21.115Z,5.60
2023-01-12T12:45:07.632Z,2.80
2023-01-12T12:47:35.293Z,5.40
2023-01-12T12:50:02.953Z,7.70
2023-01-12T12:52:34.595Z,8.30
2023-01-12T12:55:02.210Z,5.40
2023-01-12T12:57:29.851Z,6.50
2023-01-12T12:59:57.902Z,6.60
2023-01-12T13:02:25.719Z,6.10
2023-01-12T13:04:53.860Z,6.00
2023-01-12T13:07:21.485Z,6.40
2023-01-12T13:09:49.124Z,4.60
2023-01-12T13:12:18.913Z,17.70
2023-01-12T13:14:49.060Z,13.60
2023-01-12T13:17:16.658Z,7.90
2023-01-12T13:19:45.024Z,8.70
2023-01-12T13:22:12.646Z,8.00
2023-01-12T13:24:40.674Z,11.50
2023-01-12T13:27:08.254Z,10.30
2023-01-12T13:29:35.888Z,11.10
2023-01-12T13:32:03.488Z,7.90
2023-01-12T13:34:31.196Z,8.20
2023-01-12T13:36:58.819Z,12.90
2023-01-12T13:39:26.837Z,18.80
2023-01-12T13:42:13.110Z,19.10
2023-01-12T13:44:40.755Z,13.80
2023-01-12T13:47:08.447Z,18.70
2023-01-12T13:49:36.061Z,21.40
2023-01-12T13:52:04.020Z,26.50
2023-01-12T13:54:31.713Z,14.70
2023-01-12T13:56:59.993Z,21.40
2023-01-12T13:59:30.138Z,11.80
2023-01-12T14:01:57.847Z,16.30
2023-01-12T14:04:25.491Z,16.30
2023-01-12T14:06:53.124Z,15.70
2023-01-12T14:09:20.707Z,22.40
2023-01-12T14:11:48.354Z,28.70
2023-01-12T14:14:35.076Z,15.90
2023-01-12T14:17:41.160Z,26.30
2023-01-12T14:20:08.768Z,19.80
2023-01-12T14:22:36.401Z,31.50
2023-01-12T14:25:04.020Z,35.90
2023-01-12T14:27:31.620Z,21.10
2023-01-12T14:29:59.228Z,20.40
2023-01-12T14:32:26.858Z,16.60
2023-01-12T14:34:54.496Z,18.90
2023-01-12T14:37:22.115Z,16.90
2023-01-12T14:39:49.760Z,13.20
2023-01-12T14:42:36.321Z,14.70
2023-01-12T14:45:22.850Z,15.20
2023-01-12T14:47:50.440Z,15.20
2023-01-12T14:50:18.123Z,19.50
2023-01-12T14:52:45.805Z,36.90
2023-01-12T14:55:13.432Z,18.90
2023-01-12T14:57:41.091Z,25.30
2023-01-12T15:00:08.696Z,23.30
2023-01-12T15:02:36.373Z,30.20
2023-01-12T15:05:04.104Z,36.90
2023-01-12T15:07:31.705Z,51.00
2023-01-12T15:09:59.332Z,56.00
2023-01-12T15:12:26.953Z,94.50
2023-01-12T15:14:54.536Z,52.00
2023-01-12T15:17:41.051Z,40.20
2023-01-12T15:20:27.437Z,44.20
2023-01-12T15:23:13.792Z,38.20
2023-01-12T15:25:43.118Z,55.60
2023-01-12T15:28:10.727Z,82.80
2023-01-12T15:30:38.418Z,161.80
2023-01-12T15:33:06.066Z,115.30
2023-01-12T15:35:35.486Z,91.50
2023-01-12T15:38:03.091Z,71.80
2023-01-12T15:40:30.683Z,112.40
2023-01-12T15:43:00.001Z,254.40
2023-01-12T15:45:27.634Z,206.00
2023-01-12T15:47:55.625Z,174.60
2023-01-12T15:50:23.238Z,130.10
2023-01-12T15:52:51.359Z,59.10
2023-01-12T15:55:19.008Z,60.30
2023-01-12T15:57:47.536Z,90.20
2023-01-12T16:00:15.215Z,54.60
2023-01-12T16:02:45.179Z,36.60
2023-01-12T16:05:13.509Z,35.50
2023-01-12T16:07:41.202Z,30.40
2023-01-12T16:10:08.867Z,39.20
2023-01-12T16:12:37.265Z,39.50
2023-01-12T16:15:04.917Z,38.70
2023-01-12T16:17:32.550Z,44.60
2023-01-12T16:20:00.206Z,41.70
2023-01-12T16:22:28.291Z,43.80
2023-01-12T16:24:56.016Z,79.00
2023-01-12T16:27:23.880Z,64.30
2023-01-12T16:29:51.537Z,69.20
2023-01-12T16:32:19.486Z,73.40
2023-01-12T16:34:47.206Z,79.00
2023-01-12T16:37:14.845Z,112.20
2023-01-12T16:39:42.549Z,119.60
2023-01-12T16:42:10.292Z,70.80
2023-01-12T16:44:37.948Z,55.70
2023-01-12T16:47:05.873Z,47.30
2023-01-12T16:49:36.118Z,58.90
2023-01-12T16:52:03.976Z,54.00
2023-01-12T16:54:31.616Z,56.60
2023-01-12T16:56:59.306Z,59.60
2023-01-12T16:59:26.982Z,56.10
2023-01-12T17:01:55.295Z,60.30
2023-01-12T17:04:23.441Z,55.40
2023-01-12T17:06:51.153Z,67.60
2023-01-12T17:09:19.206Z,64.40
2023-01-12T17:11:47.370Z,66.30
2023-01-12T17:14:24.682Z,49.10
2023-01-12T17:16:52.459Z,45.70
2023-01-12T17:19:20.581Z,44.30
2023-01-12T17:21:50.031Z,41.80
2023-01-12T17:24:20.211Z,44.70
2023-01-12T17:26:48.955Z,42.50
2023-01-12T17:29:16.636Z,42.60
2023-01-12T17:31:44.417Z,58.00
2023-01-12T17:34:12.318Z,65.90
2023-01-12T17:36:39.979Z,128.80
2023-01-12T17:39:07.642Z,119.40
2023-01-12T17:41:54.308Z,127.50
2023-01-12T17:44:21.970Z,293.00
2023-01-12T17:46:49.677Z,272.10
2023-01-12T17:49:17.394Z,209.00
2023-01-12T17:51:45.050Z,516.60
2023-01-12T17:54:12.701Z,321.50
2023-01-12T17:56:40.345Z,496.10
2023-01-12T17:59:08.023Z,168.50
2023-01-12T18:01:35.802Z,183.30
2023-01-12T18:04:03.570Z,100.30
2023-01-12T18:06:31.233Z,114.20
2023-01-12T18:09:02.011Z,307.70
2023-01-12T18:11:31.291Z,73.70
2023-01-12T18:13:58.974Z,93.90
2023-01-12T18:16:26.613Z,56.20
2023-01-12T18:18:54.562Z,47.70
2023-01-12T18:21:22.405Z,71.80
2023-01-12T18:23:50.077Z,112.00
2023-01-12T18:26:17.732Z,187.70
2023-01-12T18:28:45.375Z,233.60
2023-01-12T18:31:13.223Z,66.10
2023-01-12T18:33:41.013Z,109.20
2023-01-12T18:36:08.675Z,59.40
2023-01-12T18:38:37.425Z,108.70
2023-01-12T18:41:24.026Z,148.90
2023-01-12T18:43:52.299Z,213.40
2023-01-12T18:46:20.083Z,103.60
2023-01-12T18:48:47.758Z,121.50
2023-01-12T18:51:34.137Z,78.10
2023-01-12T18:54:01.785Z,105.00
2023-01-12T18:56:29.411Z,104.10
2023-01-12T18:58:57.039Z,93.20
2023-01-12T19:01:25.366Z,124.00
2023-01-12T19:03:53.329Z,77.90
2023-01-12T19:06:20.967Z,46.80
2023-01-12T19:09:07.620Z,75.40
2023-01-12T19:11:35.268Z,71.20
2023-01-12T19:14:21.904Z,66.40
2023-01-12T19:17:08.314Z,59.60
2023-01-12T19:19:36.030Z,54.30
2023-01-12T19:22:22.371Z,38.40
2023-01-12T19:25:08.653Z,41.90
2023-01-12T19:27:55.343Z,47.30
2023-01-12T19:30:23.543Z,46.50
2023-01-12T19:32:51.166Z,47.10
2023-01-12T19:35:18.792Z,47.50
2023-01-12T19:37:46.457Z,45.20
2023-01-12T19:40:29.648Z,58.40
2023-01-12T19:43:16.084Z,58.70
2023-01-12T19:45:43.747Z,43.40
2023-01-12T19:48:11.398Z,38.80
2023-01-12T19:50:39.070Z,48.50
2023-01-12T19:53:06.726Z,50.90
2023-01-12T19:55:34.344Z,39.80
2023-01-12T19:58:02.040Z,59.50
2023-01-12T20:00:30.208Z,57.10
2023-01-12T20:02:58.277Z,51.40
2023-01-12T20:05:26.083Z,47.70
2023-01-12T20:07:53.769Z,42.50
2023-01-12T20:10:21.473Z,60.70
2023-01-12T20:12:49.190Z,73.00
2023-01-12T20:15:18.322Z,73.50
2023-01-12T20:17:48.293Z,92.90
2023-01-12T20:20:16.041Z,72.30
2023-01-12T20:22:43.758Z,75.30
2023-01-12T20:25:11.399Z,84.50
2023-01-12T20:27:39.464Z,80.50
2023-01-12T20:30:07.149Z,54.20
2023-01-12T20:32:38.193Z,61.20
2023-01-12T20:35:05.846Z,40.30
2023-01-12T20:37:33.633Z,46.40
2023-01-12T20:40:01.306Z,41.80
2023-01-12T20:42:31.839Z,45.10
2023-01-12T20:44:59.481Z,57.20
2023-01-12T20:47:27.182Z,87.00
2023-01-12T20:49:54.929Z,107.30
2023-01-12T20:52:22.552Z,104.80
2023-01-12T20:54:50.155Z,78.10
2023-01-12T20:57:17.787Z,93.10
2023-01-12T20:59:45.619Z,63.60
2023-01-12T21:02:13.207Z,60.60
2023-01-12T21:04:40.823Z,42.00
2023-01-12T21:07:08.424Z,36.10
2023-01-12T21:09:36.045Z,47.80
2023-01-12T21:12:03.650Z,30.90
2023-01-12T21:14:31.519Z,30.50
2023-01-12T21:16:59.144Z,29.00
2023-01-12T21:19:26.753Z,27.10
2023-01-12T21:21:54.349Z,26.60
2023-01-12T21:24:21.936Z,28.20
2023-01-12T21:26:49.561Z,26.40
2023-01-12T21:29:17.245Z,24.30
2023-01-12T21:31:45.100Z,31.00
2023-01-12T21:34:12.837Z,28.10
2023-01-12T21:36:40.450Z,21.40
2023-01-12T21:39:08.171Z,24.00
2023-01-12T21:41:55.751Z,26.10
2023-01-12T21:44:23.365Z,27.20
2023-01-12T21:46:51.013Z,32.50
2023-01-12T21:49:18.677Z,27.70
2023-01-12T21:51:46.304Z,35.20
2023-01-12T21:54:13.928Z,33.90
2023-01-12T21:56:41.559Z,26.30
2023-01-12T21:59:09.283Z,26.60
2023-01-12T22:01:37.002Z,36.80
2023-01-12T22:04:04.770Z,29.90
2023-01-12T22:06:32.463Z,18.60
2023-01-12T22:09:00.122Z,18.50
2023-01-12T22:11:27.721Z,26.10
2023-01-12T22:13:55.593Z,27.00
2023-01-12T22:16:23.321Z,27.10
2023-01-12T22:18:51.274Z,23.10
2023-01-12T22:21:18.944Z,15.60
2023-01-12T22:23:46.549Z,28.40
2023-01-12T22:26:14.264Z,18.10
2023-01-12T22:28:41.909Z,19.10
2023-01-12T22:31:09.524Z,22.20
2023-01-12T22:33:37.154Z,21.40
2023-01-12T22:36:04.764Z,25.40
2023-01-12T22:38:32.416Z,19.80
2023-01-12T22:41:00.044Z,20.90
2023-01-12T22:43:27.711Z,17.00
2023-01-12T22:45:58.045Z,19.70
2023-01-12T22:48:25.876Z,19.90
2023-01-12T22:50:54.783Z,27.30
2023-01-12T22:53:22.473Z,35.50
2023-01-12T22:55:50.086Z,34.90
2023-01-12T22:58:17.720Z,24.70
2023-01-12T23:00:45.710Z,24.30
2023-01-12T23:03:13.519Z,22.00
2023-01-12T23:05:41.348Z,20.80
2023-01-12T23:08:09.298Z,19.30
2023-01-12T23:10:37.483Z,20.20
2023-01-12T23:13:16.173Z,15.30
2023-01-12T23:15:44.004Z,19.80
2023-01-12T23:18:11.743Z,20.00
2023-01-12T23:20:39.908Z,19.40
2023-01-12T23:23:08.159Z,23.20
2023-01-12T23:25:35.975Z,18.50
2023-01-12T23:28:03.710Z,19.90
2023-01-12T23:30:31.573Z,22.30
2023-01-12T23:32:59.293Z,24.50
2023-01-12T23:35:27.030Z,30.00
2023-01-12T23:37:54.749Z,21.70
2023-01-12T23:40:22.463Z,22.80
2023-01-12T23:42:50.155Z,29.70
2023-01-12T23:45:17.890Z,23.40
2023-01-12T23:47:45.610Z,20.70
2023-01-12T23:50:13.567Z,24.70
2023-01-12T23:52:41.316Z,37.40
2023-01-12T23:55:09.035Z,26.90
2023-01-12T23:57:36.805Z,36.10
